createdAt,value
2018-11-06T00:02:03.056Z,60.63
2018-11-06T00:04:37.141Z,60.00
2018-11-06T00:07:05.222Z,59.63
2018-11-06T00:09:33.268Z,75.70
2018-11-06T00:12:01.320Z,64.40
2018-11-06T00:14:29.294Z,62.67
2018-11-06T00:16:57.276Z,56.97
2018-11-06T00:19:25.273Z,61.20
2018-11-06T00:21:53.211Z,57.80
2018-11-06T00:24:21.185Z,67.57
2018-11-06T00:26:49.244Z,64.53
2018-11-06T00:29:17.203Z,64.20
2018-11-06T00:31:45.308Z,82.47
2018-11-06T00:34:14.178Z,65.07
2018-11-06T00:36:42.150Z,71.93
2018-11-06T00:39:10.483Z,67.23
2018-11-06T00:41:38.612Z,67.77
2018-11-06T00:44:06.637Z,58.57
2018-11-06T00:46:34.609Z,54.33
2018-11-06T00:49:02.583Z,77.50
2018-11-06T00:51:30.552Z,58.20
2018-11-06T00:53:58.509Z,59.60
2018-11-06T00:56:26.489Z,61.33
2018-11-06T00:58:54.423Z,61.57
2018-11-06T01:01:22.411Z,62.37
2018-11-06T01:04:22.273Z,62.50
2018-11-06T01:06:50.298Z,52.53
2018-11-06T01:09:18.287Z,65.07
2018-11-06T01:11:46.293Z,62.37
2018-11-06T01:14:14.249Z,54.83
2018-11-06T01:16:42.285Z,69.17
2018-11-06T01:19:10.676Z,54.40
2018-11-06T01:21:38.683Z,63.77
2018-11-06T01:24:07.449Z,56.47
2018-11-06T01:26:35.395Z,56.27
2018-11-06T01:29:03.468Z,67.47
2018-11-06T01:31:31.502Z,58.97
2018-11-06T01:33:59.429Z,69.63
2018-11-06T01:36:27.383Z,51.93
2018-11-06T01:38:55.349Z,50.40
2018-11-06T01:41:23.457Z,47.13
2018-11-06T01:43:51.408Z,44.40
2018-11-06T01:46:22.540Z,46.10
2018-11-06T01:48:50.504Z,45.23
2018-11-06T01:51:18.517Z,46.13
2018-11-06T01:53:46.653Z,49.33
2018-11-06T01:56:14.666Z,44.30
2018-11-06T01:58:42.689Z,42.00
2018-11-06T02:01:10.640Z,43.03
2018-11-06T02:03:38.683Z,45.30
2018-11-06T02:06:06.906Z,44.30
2018-11-06T02:08:34.960Z,61.93
2018-11-06T02:11:03.048Z,71.37
2018-11-06T02:13:31.109Z,55.03
2018-11-06T02:15:59.133Z,71.23
2018-11-06T02:18:27.119Z,50.90
2018-11-06T02:20:55.129Z,58.13
2018-11-06T02:23:23.239Z,53.97
2018-11-06T02:25:51.250Z,57.63
2018-11-06T02:28:19.221Z,66.00
2018-11-06T02:30:47.226Z,54.93
2018-11-06T02:33:15.300Z,152.70
2018-11-06T02:35:43.321Z,36.70
2018-11-06T02:38:11.434Z,42.10
2018-11-06T02:40:39.539Z,34.17
2018-11-06T02:43:07.536Z,40.20
2018-11-06T02:45:35.538Z,58.03
2018-11-06T02:48:03.557Z,173.63
2018-11-06T02:50:31.576Z,36.73
2018-11-06T02:52:59.556Z,108.20
2018-11-06T02:55:27.552Z,34.93
2018-11-06T02:57:55.555Z,38.87
2018-11-06T03:00:23.531Z,33.27
2018-11-06T03:02:51.594Z,31.67
2018-11-06T03:05:19.585Z,30.40
2018-11-06T03:07:47.592Z,31.07
2018-11-06T03:10:15.691Z,30.70
2018-11-06T03:12:44.233Z,29.23
2018-11-06T03:15:13.251Z,30.00
2018-11-06T03:17:41.213Z,40.90
2018-11-06T03:20:10.306Z,37.43
2018-11-06T03:22:38.383Z,45.03
2018-11-06T03:25:06.635Z,35.80
2018-11-06T03:27:34.645Z,30.73
2018-11-06T03:30:03.440Z,34.27
2018-11-06T03:32:31.377Z,33.30
2018-11-06T03:34:59.450Z,36.13
2018-11-06T03:37:27.486Z,58.43
2018-11-06T03:39:55.471Z,30.17
2018-11-06T03:42:23.434Z,35.03
2018-11-06T03:44:51.359Z,42.43
2018-11-06T03:47:19.313Z,32.10
2018-11-06T03:49:47.280Z,29.57
2018-11-06T03:52:15.262Z,32.93
2018-11-06T03:54:43.277Z,48.40
2018-11-06T03:57:11.222Z,31.87
2018-11-06T03:59:39.169Z,39.37
2018-11-06T04:02:07.104Z,31.00
2018-11-06T04:04:35.084Z,50.43
2018-11-06T04:07:03.120Z,30.70
2018-11-06T04:09:31.099Z,64.37
2018-11-06T04:11:59.057Z,33.73
2018-11-06T04:14:27.009Z,36.13
2018-11-06T04:16:54.932Z,29.33
2018-11-06T04:19:22.899Z,102.00
2018-11-06T04:21:50.863Z,44.33
2018-11-06T04:24:18.895Z,35.20
2018-11-06T04:26:47.656Z,25.87
2018-11-06T04:29:15.622Z,29.03
2018-11-06T04:31:43.620Z,27.50
2018-11-06T04:34:11.532Z,28.93
2018-11-06T04:36:39.513Z,42.00
2018-11-06T04:39:08.929Z,27.87
2018-11-06T04:41:36.935Z,29.10
2018-11-06T04:44:05.659Z,25.93
2018-11-06T04:46:33.741Z,26.80
2018-11-06T04:49:01.625Z,24.30
2018-11-06T04:51:29.593Z,28.20
2018-11-06T04:53:57.627Z,25.57
2018-11-06T04:56:25.894Z,26.90
2018-11-06T04:58:53.953Z,32.93
2018-11-06T05:01:22.504Z,20.50
2018-11-06T05:03:50.433Z,19.60
2018-11-06T05:06:18.844Z,20.47
2018-11-06T05:08:46.840Z,19.43
2018-11-06T05:11:14.949Z,18.97
2018-11-06T05:13:43.040Z,26.63
2018-11-06T05:16:11.027Z,18.17
2018-11-06T05:18:38.986Z,17.53
2018-11-06T05:21:07.405Z,38.97
2018-11-06T05:23:35.543Z,19.93
2018-11-06T05:26:04.325Z,19.70
2018-11-06T05:28:32.294Z,18.17
2018-11-06T05:31:00.316Z,19.23
2018-11-06T05:33:28.240Z,20.60
2018-11-06T05:35:56.233Z,18.73
2018-11-06T05:38:24.137Z,19.33
2018-11-06T05:40:57.473Z,17.33
2018-11-06T05:43:25.434Z,37.37
2018-11-06T05:45:54.063Z,30.30
2018-11-06T05:48:22.121Z,20.40
2018-11-06T05:50:50.233Z,21.07
2018-11-06T05:53:18.408Z,22.93
2018-11-06T05:55:46.496Z,17.33
2018-11-06T05:58:14.416Z,19.17
2018-11-06T06:00:42.983Z,15.97
2018-11-06T06:03:10.920Z,18.33
2018-11-06T06:05:38.889Z,17.77
2018-11-06T06:08:07.115Z,24.77
2018-11-06T06:10:35.277Z,18.50
2018-11-06T06:13:03.874Z,18.03
2018-11-06T06:15:31.941Z,18.07
2018-11-06T06:17:59.909Z,19.23
2018-11-06T06:20:27.882Z,18.30
2018-11-06T06:22:55.898Z,20.93
2018-11-06T06:25:23.853Z,19.90
2018-11-06T06:27:51.961Z,18.90
2018-11-06T06:30:19.923Z,17.70
2018-11-06T06:32:47.967Z,19.33
2018-11-06T06:35:16.072Z,21.10
2018-11-06T06:37:44.177Z,20.67
2018-11-06T06:40:13.635Z,18.93
2018-11-06T06:42:41.953Z,21.27
2018-11-06T06:45:11.876Z,22.70
2018-11-06T06:47:39.863Z,28.07
2018-11-06T06:50:09.980Z,27.30
2018-11-06T06:52:38.562Z,28.33
2018-11-06T06:55:07.718Z,23.43
2018-11-06T06:57:36.237Z,25.50
2018-11-06T07:00:04.496Z,24.53
2018-11-06T07:02:32.564Z,27.13
2018-11-06T07:05:00.455Z,28.97
2018-11-06T07:07:28.373Z,22.83
2018-11-06T07:09:56.335Z,27.10
2018-11-06T07:12:24.240Z,29.17
2018-11-06T07:14:52.154Z,25.47
2018-11-06T07:17:20.129Z,24.80
2018-11-06T07:19:48.116Z,25.07
2018-11-06T07:22:16.028Z,31.47
2018-11-06T07:24:43.984Z,27.00
2018-11-06T07:27:12.003Z,25.60
2018-11-06T07:29:39.971Z,26.17
2018-11-06T07:32:08.534Z,27.37
2018-11-06T07:34:36.616Z,31.77
2018-11-06T07:37:04.714Z,27.80
2018-11-06T07:39:32.692Z,24.47
2018-11-06T07:42:00.662Z,27.03
2018-11-06T07:44:28.759Z,30.10
2018-11-06T07:46:56.812Z,29.07
2018-11-06T07:49:24.885Z,26.70
2018-11-06T07:51:52.928Z,26.70
2018-11-06T07:54:20.885Z,24.40
2018-11-06T07:56:48.877Z,26.43
2018-11-06T07:59:16.937Z,25.83
2018-11-06T08:01:44.886Z,31.90
2018-11-06T08:04:12.988Z,26.73
2018-11-06T08:06:40.960Z,24.20
2018-11-06T08:09:09.717Z,25.70
2018-11-06T08:11:38.496Z,25.57
2018-11-06T08:14:06.508Z,25.30
2018-11-06T08:16:34.443Z,25.50
2018-11-06T08:19:02.455Z,21.63
2018-11-06T08:21:30.505Z,23.43
2018-11-06T08:23:58.586Z,24.13
2018-11-06T08:26:26.525Z,26.83
2018-11-06T08:28:54.482Z,21.33
2018-11-06T08:31:22.801Z,23.50
2018-11-06T08:33:50.496Z,22.83
2018-11-06T08:36:18.577Z,21.93
2018-11-06T08:38:46.619Z,21.47
2018-11-06T08:41:14.898Z,23.97
2018-11-06T08:43:42.882Z,28.57
2018-11-06T08:46:10.857Z,25.43
2018-11-06T08:48:38.868Z,22.80
2018-11-06T08:51:07.065Z,22.73
2018-11-06T08:53:35.149Z,28.60
2018-11-06T08:56:03.742Z,24.13
2018-11-06T08:58:31.732Z,23.80
2018-11-06T09:00:59.740Z,25.33
2018-11-06T09:03:27.829Z,22.90
2018-11-06T09:05:56.809Z,29.27
2018-11-06T09:08:25.032Z,27.83
2018-11-06T09:10:53.195Z,25.60
2018-11-06T09:13:21.222Z,33.40
2018-11-06T09:15:49.316Z,29.23
2018-11-06T09:18:17.394Z,32.33
2018-11-06T09:20:45.501Z,28.60
2018-11-06T09:23:13.549Z,30.50
2018-11-06T09:25:41.500Z,28.63
2018-11-06T09:28:09.493Z,32.17
2018-11-06T09:30:37.516Z,27.60
2018-11-06T09:33:05.729Z,30.07
2018-11-06T09:35:33.710Z,30.63
2018-11-06T09:38:01.861Z,27.23
2018-11-06T09:42:57.863Z,29.77
2018-11-06T09:45:25.921Z,26.53
2018-11-06T09:47:53.988Z,24.53
2018-11-06T09:50:22.038Z,26.83
2018-11-06T09:52:50.176Z,23.87
2018-11-06T09:55:18.334Z,30.57
2018-11-06T09:57:46.919Z,25.07
2018-11-06T10:00:19.504Z,24.00
2018-11-06T10:02:47.641Z,23.03
2018-11-06T10:05:16.053Z,26.53
2018-11-06T10:07:44.169Z,25.27
2018-11-06T10:10:14.001Z,23.40
2018-11-06T10:12:42.365Z,23.33
2018-11-06T10:15:12.393Z,28.97
2018-11-06T10:17:41.386Z,23.07
2018-11-06T10:20:10.421Z,18.97
2018-11-06T10:22:38.495Z,22.03
2018-11-06T10:25:06.900Z,21.33
2018-11-06T10:27:35.092Z,22.63
2018-11-06T10:30:03.221Z,20.50
2018-11-06T10:32:31.314Z,22.33
2018-11-06T10:34:59.384Z,19.63
2018-11-06T10:37:27.353Z,20.27
2018-11-06T10:39:55.422Z,17.90
2018-11-06T10:42:23.359Z,18.83
2018-11-06T10:44:51.311Z,18.23
2018-11-06T10:47:19.234Z,20.57
2018-11-06T10:49:47.222Z,19.43
2018-11-06T10:52:15.236Z,19.93
2018-11-06T10:54:43.193Z,19.97
2018-11-06T10:57:11.164Z,20.27
2018-11-06T10:59:39.110Z,16.90
2018-11-06T11:03:10.044Z,19.10
2018-11-06T11:05:38.029Z,17.83
2018-11-06T11:08:05.984Z,20.00
2018-11-06T11:10:33.926Z,22.23
2018-11-06T11:13:01.845Z,22.17
2018-11-06T11:15:29.818Z,21.40
2018-11-06T11:17:57.928Z,18.83
2018-11-06T11:20:25.947Z,19.13
2018-11-06T11:22:53.929Z,20.50
2018-11-06T11:25:21.995Z,18.80
2018-11-06T11:27:50.077Z,20.37
2018-11-06T11:30:18.136Z,22.07
2018-11-06T11:32:47.131Z,17.87
2018-11-06T11:35:15.541Z,19.17
2018-11-06T11:37:43.675Z,19.53
2018-11-06T11:40:12.855Z,15.83
2018-11-06T11:42:40.971Z,16.93
2018-11-06T11:45:10.340Z,19.23
2018-11-06T11:47:38.597Z,16.03
2018-11-06T11:50:07.948Z,18.37
2018-11-06T11:52:35.964Z,21.80
2018-11-06T11:55:04.395Z,19.53
2018-11-06T11:57:34.376Z,20.87
2018-11-06T12:00:02.514Z,16.03
2018-11-06T12:02:30.484Z,15.43
2018-11-06T12:04:58.797Z,16.63
2018-11-06T12:07:26.887Z,18.07
2018-11-06T12:09:55.066Z,17.17
2018-11-06T12:12:23.096Z,18.53
2018-11-06T12:14:51.098Z,15.83
2018-11-06T12:17:19.426Z,17.87
2018-11-06T12:19:47.442Z,16.43
2018-11-06T12:22:15.468Z,14.70
2018-11-06T12:24:44.138Z,13.90
2018-11-06T12:27:12.123Z,13.43
2018-11-06T12:29:40.131Z,16.50
2018-11-06T12:32:09.074Z,17.10
2018-11-06T12:34:37.074Z,15.73
2018-11-06T12:37:05.228Z,19.10
2018-11-06T12:39:33.209Z,13.67
2018-11-06T12:42:01.189Z,18.50
2018-11-06T12:44:29.309Z,15.10
2018-11-06T12:46:57.314Z,15.03
2018-11-06T12:49:25.355Z,13.67
2018-11-06T12:51:53.944Z,13.60
2018-11-06T12:54:21.904Z,18.40
2018-11-06T12:56:49.902Z,16.90
2018-11-06T12:59:17.834Z,14.43
2018-11-06T13:01:45.847Z,17.93
2018-11-06T13:04:13.908Z,20.23
2018-11-06T13:06:41.893Z,16.77
2018-11-06T13:09:10.884Z,16.10
2018-11-06T13:11:39.253Z,16.27
2018-11-06T13:14:07.920Z,17.07
2018-11-06T13:16:36.102Z,15.17
2018-11-06T13:19:04.224Z,15.23
2018-11-06T13:21:32.255Z,16.87
2018-11-06T13:24:00.304Z,18.20
2018-11-06T13:26:28.648Z,16.90
2018-11-06T13:28:56.608Z,18.50
2018-11-06T13:31:24.732Z,16.97
2018-11-06T13:33:52.962Z,17.40
2018-11-06T13:36:20.995Z,16.77
2018-11-06T13:38:49.996Z,15.20
2018-11-06T13:41:18.044Z,18.57
2018-11-06T13:43:46.221Z,17.57
2018-11-06T13:46:14.089Z,17.10
2018-11-06T13:48:42.129Z,16.43
2018-11-06T13:51:10.120Z,16.53
2018-11-06T13:53:38.089Z,14.33
2018-11-06T13:56:06.995Z,15.33
2018-11-06T13:58:35.064Z,17.03
2018-11-06T14:01:03.086Z,17.47
2018-11-06T14:03:31.153Z,14.93
2018-11-06T14:05:59.143Z,14.47
2018-11-06T14:08:27.104Z,14.67
2018-11-06T14:10:55.180Z,13.53
2018-11-06T14:13:23.232Z,15.43
2018-11-06T14:15:51.205Z,15.57
2018-11-06T14:18:19.977Z,18.27
2018-11-06T14:20:48.084Z,13.37
2018-11-06T14:23:16.086Z,17.23
2018-11-06T14:25:44.204Z,15.73
2018-11-06T14:28:12.317Z,16.43
2018-11-06T14:30:40.556Z,18.30
2018-11-06T14:33:08.546Z,16.63
2018-11-06T14:35:36.560Z,14.93
2018-11-06T14:38:04.872Z,15.70
2018-11-06T14:40:32.886Z,16.33
2018-11-06T14:43:01.186Z,13.80
2018-11-06T14:45:29.283Z,14.67
2018-11-06T14:47:59.452Z,16.60
2018-11-06T14:50:27.396Z,13.50
2018-11-06T14:52:55.365Z,13.57
2018-11-06T14:55:23.413Z,14.77
2018-11-06T14:57:51.430Z,14.00
2018-11-06T15:00:20.546Z,16.83
2018-11-06T15:02:49.983Z,15.73
2018-11-06T15:05:18.877Z,16.20
2018-11-06T15:07:47.090Z,18.40
2018-11-06T15:10:15.302Z,17.57
2018-11-06T15:12:44.076Z,14.93
2018-11-06T15:15:13.377Z,16.37
2018-11-06T15:17:42.751Z,15.17
2018-11-06T15:20:13.372Z,21.07
2018-11-06T15:22:42.131Z,18.20
2018-11-06T15:25:11.235Z,16.83
2018-11-06T15:27:39.354Z,19.70
2018-11-06T15:30:09.632Z,18.23
2018-11-06T15:32:37.848Z,17.53
2018-11-06T15:35:06.773Z,18.80
2018-11-06T15:37:35.473Z,19.87
2018-11-06T15:40:03.763Z,19.87
2018-11-06T15:42:31.868Z,23.17
2018-11-06T15:44:59.835Z,17.23
2018-11-06T15:47:28.291Z,23.43
2018-11-06T15:49:56.349Z,24.73
2018-11-06T15:52:24.424Z,18.87
2018-11-06T15:54:52.503Z,18.40
2018-11-06T15:57:20.468Z,19.63
2018-11-06T15:59:48.525Z,16.03
2018-11-06T16:02:16.532Z,18.80
2018-11-06T16:04:45.377Z,19.47
2018-11-06T16:07:13.360Z,19.53
2018-11-06T16:09:41.408Z,15.77
2018-11-06T16:12:09.724Z,20.23
2018-11-06T16:14:37.875Z,18.00
2018-11-06T16:17:06.285Z,19.37
2018-11-06T16:19:34.293Z,16.40
2018-11-06T16:22:02.424Z,20.63
2018-11-06T16:24:30.385Z,22.33
2018-11-06T16:26:58.403Z,20.43
2018-11-06T16:29:26.405Z,18.87
2018-11-06T16:31:54.488Z,19.57
2018-11-06T16:34:22.492Z,21.20
2018-11-06T16:36:50.595Z,19.77
2018-11-06T16:39:18.593Z,19.80
2018-11-06T16:41:47.410Z,18.90
2018-11-06T16:44:15.414Z,21.37
2018-11-06T16:46:43.398Z,21.13
2018-11-06T16:49:11.508Z,20.50
2018-11-06T16:51:39.487Z,21.87
2018-11-06T16:54:07.472Z,22.37
2018-11-06T16:56:35.593Z,22.93
2018-11-06T16:59:03.571Z,21.07
2018-11-06T17:01:31.821Z,20.53
2018-11-06T17:03:59.814Z,19.10
2018-11-06T17:06:33.360Z,20.57
2018-11-06T17:09:01.381Z,22.17
2018-11-06T17:11:29.422Z,20.03
2018-11-06T17:13:57.510Z,20.73
2018-11-06T17:16:25.508Z,21.50
2018-11-06T17:18:53.504Z,19.53
2018-11-06T17:21:21.507Z,19.03
2018-11-06T17:23:49.468Z,21.30
2018-11-06T17:26:17.420Z,22.20
2018-11-06T17:28:46.515Z,22.27
2018-11-06T17:31:14.607Z,21.47
2018-11-06T17:33:42.616Z,23.60
2018-11-06T17:36:10.793Z,22.57
2018-11-06T17:38:38.791Z,20.93
2018-11-06T17:41:06.762Z,21.47
2018-11-06T17:43:34.827Z,19.33
2018-11-06T17:46:02.941Z,23.50
2018-11-06T17:48:31.635Z,23.17
2018-11-06T17:50:59.901Z,22.03
2018-11-06T17:53:27.859Z,19.40
2018-11-06T17:55:55.915Z,21.50
2018-11-06T17:58:23.869Z,22.80
2018-11-06T18:00:52.876Z,18.97
2018-11-06T18:03:20.869Z,22.70
2018-11-06T18:05:48.977Z,24.17
2018-11-06T18:08:17.071Z,19.57
2018-11-06T18:10:45.292Z,21.47
2018-11-06T18:13:13.413Z,19.33
2018-11-06T18:15:41.420Z,21.73
2018-11-06T18:18:10.165Z,20.90
2018-11-06T18:20:38.113Z,23.70
2018-11-06T18:23:06.304Z,26.17
2018-11-06T18:25:34.376Z,24.33
2018-11-06T18:28:02.411Z,26.27
2018-11-06T18:30:30.481Z,24.40
2018-11-06T18:32:58.443Z,23.73
2018-11-06T18:35:26.454Z,25.00
2018-11-06T18:37:54.459Z,22.83
2018-11-06T18:40:22.420Z,27.23
2018-11-06T18:42:51.034Z,26.70
2018-11-06T18:45:19.108Z,26.60
2018-11-06T18:47:47.871Z,24.83
2018-11-06T18:50:16.918Z,27.83
2018-11-06T18:52:46.282Z,26.03
2018-11-06T18:55:14.320Z,25.47
2018-11-06T18:57:42.488Z,26.53
2018-11-06T19:00:17.868Z,25.77
2018-11-06T19:02:46.746Z,26.83
2018-11-06T19:05:15.238Z,29.93
2018-11-06T19:07:43.901Z,25.80
2018-11-06T19:10:12.921Z,25.37
2018-11-06T19:12:41.192Z,28.97
2018-11-06T19:15:12.913Z,24.10
2018-11-06T19:19:26.939Z,25.87
2018-11-06T19:21:55.101Z,28.30
2018-11-06T19:24:23.057Z,25.33
2018-11-06T19:26:51.016Z,27.60
2018-11-06T19:29:18.966Z,27.30
2018-11-06T19:31:47.013Z,28.03
2018-11-06T19:34:15.074Z,25.70
2018-11-06T19:36:43.108Z,26.43
2018-11-06T19:39:12.053Z,27.07
2018-11-06T19:41:40.148Z,27.87
2018-11-06T19:44:09.671Z,27.70
2018-11-06T19:46:37.812Z,27.13
2018-11-06T19:49:05.835Z,25.57
2018-11-06T19:51:34.240Z,24.67
2018-11-06T19:54:02.376Z,23.47
2018-11-06T19:56:30.338Z,22.93
2018-11-06T19:58:58.283Z,25.20
2018-11-06T20:01:26.738Z,24.37
2018-11-06T20:03:54.708Z,24.13
2018-11-06T20:06:22.799Z,24.03
2018-11-06T20:08:50.978Z,26.23
2018-11-06T20:11:19.056Z,27.67
2018-11-06T20:13:47.020Z,28.57
2018-11-06T20:16:15.066Z,24.77
2018-11-06T20:18:43.046Z,21.60
2018-11-06T20:21:11.095Z,22.37
2018-11-06T20:23:39.077Z,22.80
2018-11-06T20:26:07.172Z,24.83
2018-11-06T20:28:36.013Z,22.30
2018-11-06T20:31:04.217Z,24.43
2018-11-06T20:33:32.340Z,21.93
2018-11-06T20:36:00.122Z,22.00
2018-11-06T20:38:28.084Z,22.53
2018-11-06T20:40:56.153Z,22.30
2018-11-06T20:43:24.162Z,20.47
2018-11-06T20:45:52.351Z,20.57
2018-11-06T20:48:20.574Z,27.60
2018-11-06T20:50:48.537Z,20.73
2018-11-06T20:53:16.474Z,23.93
2018-11-06T20:55:44.549Z,20.10
2018-11-06T20:58:12.569Z,22.43
2018-11-06T21:00:40.866Z,20.83
2018-11-06T21:03:08.767Z,28.20
2018-11-06T21:05:36.736Z,29.83
2018-11-06T21:08:04.910Z,20.27
2018-11-06T21:10:32.882Z,19.73
2018-11-06T21:13:00.867Z,19.33
2018-11-06T21:15:28.757Z,18.63
2018-11-06T21:17:57.095Z,19.93
2018-11-06T21:20:25.079Z,20.47
2018-11-06T21:22:52.895Z,18.60
2018-11-06T21:25:21.105Z,20.07
2018-11-06T21:27:48.966Z,21.77
2018-11-06T21:30:19.336Z,21.57
2018-11-06T21:32:48.651Z,19.63
2018-11-06T21:35:16.828Z,20.07
2018-11-06T21:37:44.801Z,21.10
2018-11-06T21:40:17.459Z,20.73
2018-11-06T21:42:45.851Z,20.97
2018-11-06T21:45:14.464Z,23.00
2018-11-06T21:47:43.540Z,22.67
2018-11-06T21:50:12.457Z,21.40
2018-11-06T21:52:40.414Z,22.77
2018-11-06T21:55:09.997Z,22.20
2018-11-06T21:57:38.272Z,20.87
2018-11-06T22:00:08.113Z,22.60
2018-11-06T22:02:36.140Z,20.53
2018-11-06T22:05:05.336Z,19.83
2018-11-06T22:07:33.288Z,22.23
2018-11-06T22:10:01.353Z,19.80
2018-11-06T22:12:29.391Z,22.83
2018-11-06T22:14:57.391Z,23.47
2018-11-06T22:17:25.369Z,25.07
2018-11-06T22:19:53.287Z,24.50
2018-11-06T22:22:21.271Z,26.23
2018-11-06T22:24:49.119Z,24.70
2018-11-06T22:27:17.032Z,21.50
2018-11-06T22:29:44.937Z,29.10
2018-11-06T22:32:13.169Z,25.03
2018-11-06T22:34:41.146Z,22.53
2018-11-06T22:37:09.165Z,22.27
2018-11-06T22:39:37.039Z,24.63
2018-11-06T22:42:04.999Z,25.77
2018-11-06T22:44:32.918Z,21.90
2018-11-06T22:47:00.864Z,27.57
2018-11-06T22:49:28.777Z,20.40
2018-11-06T22:51:56.797Z,28.87
2018-11-06T22:54:24.767Z,27.37
2018-11-06T22:56:52.798Z,25.60
2018-11-06T22:59:21.114Z,26.40
2018-11-06T23:01:49.154Z,26.60
2018-11-06T23:04:17.107Z,22.77
2018-11-06T23:06:45.132Z,20.73
2018-11-06T23:09:13.062Z,20.70
2018-11-06T23:11:40.992Z,21.83
2018-11-06T23:14:08.989Z,17.83
2018-11-06T23:16:36.988Z,20.07
2018-11-06T23:19:05.069Z,25.27
2018-11-06T23:21:33.116Z,23.33
2018-11-06T23:24:01.214Z,22.07
2018-11-06T23:26:29.857Z,19.93
2018-11-06T23:28:57.718Z,21.50
2018-11-06T23:31:25.714Z,22.17
2018-11-06T23:33:53.687Z,24.03
2018-11-06T23:36:21.769Z,21.63
2018-11-06T23:38:49.657Z,20.63
2018-11-06T23:41:17.721Z,20.63
2018-11-06T23:43:45.651Z,25.47
2018-11-06T23:46:13.638Z,20.50
2018-11-06T23:48:41.572Z,27.20
2018-11-06T23:51:09.440Z,23.77
2018-11-06T23:53:37.300Z,23.13
2018-11-06T23:56:05.307Z,24.93
2018-11-06T23:58:33.161Z,27.33
